Time;durP1;ratioP1;P1;durP2;ratioP2;P2;SDS_P1;SDS_P2;PMS_P1;PMS_P2;Temp;Humidity;BMP_temperature;BMP_pressure;BME280_temperature;BME280_humidity;BME280_pressure;Samples;Min_cycle;Max_cycle;Signal;HPM_P1;HPM_P2
2022/10/19 00:00:13;;;;;;;29.65;12.70;;;;;;;7.28;100.00;102799.13;5267224;28;20128;-81
2022/10/19 00:02:44;;;;;;;29.15;12.18;;;;;;;7.27;100.00;102797.41;5268430;28;20057;-82
2022/10/19 00:05:16;;;;;;;30.88;12.75;;;;;;;7.20;100.00;102801.28;5268531;28;20592;-82
2022/10/19 00:07:47;;;;;;;33.75;13.23;;;;;;;7.14;100.00;102796.28;5267592;28;20064;-82
2022/10/19 00:10:18;;;;;;;35.65;12.85;;;;;;;7.04;100.00;102787.03;5271646;28;20033;-82
2022/10/19 00:12:50;;;;;;;29.83;12.27;;;;;;;7.12;100.00;102793.69;5274529;28;21182;-82
2022/10/19 00:15:21;;;;;;;26.50;13.23;;;;;;;7.05;100.00;102797.56;5277129;28;20067;-82
2022/10/19 00:17:52;;;;;;;32.08;13.18;;;;;;;6.96;100.00;102787.38;5257720;28;20036;-82
2022/10/19 00:20:23;;;;;;;22.77;12.75;;;;;;;6.94;100.00;102790.13;5261876;28;20026;-82
2022/10/19 00:22:55;;;;;;;28.67;12.65;;;;;;;6.92;100.00;102794.59;5273770;28;20393;-82
2022/10/19 00:25:26;;;;;;;29.95;13.60;;;;;;;6.90;100.00;102779.72;5274301;28;20694;-81
2022/10/19 00:27:57;;;;;;;24.85;12.40;;;;;;;6.93;100.00;102787.53;5279090;28;20033;-81
2022/10/19 00:30:29;;;;;;;32.20;14.25;;;;;;;6.96;100.00;102780.28;5273716;28;20493;-82
2022/10/19 00:33:00;;;;;;;26.27;13.52;;;;;;;6.88;100.00;102779.78;5277153;28;20025;-81
2022/10/19 00:35:31;;;;;;;31.20;14.63;;;;;;;7.00;100.00;102786.31;5277235;28;20024;-81
2022/10/19 00:38:03;;;;;;;34.45;14.43;;;;;;;6.93;100.00;102780.44;5265389;28;20052;-82
2022/10/19 00:40:38;;;;;;;30.10;13.20;;;;;;;6.96;100.00;102769.69;5283625;28;20021;-81
2022/10/19 00:43:22;;;;;;;33.80;15.68;;;;;;;7.00;100.00;102768.59;5281236;28;20033;-81
2022/10/19 00:45:53;;;;;;;40.05;16.48;;;;;;;7.07;100.00;102779.78;5284995;28;20037;-82
2022/10/19 00:48:31;;;;;;;34.00;15.93;;;;;;;7.15;100.00;102779.41;5274021;28;21430;-82
2022/10/19 00:51:02;;;;;;;33.60;16.23;;;;;;;7.08;100.00;102783.28;5279362;28;20115;-82
2022/10/19 00:53:35;;;;;;;36.75;16.40;;;;;;;7.04;100.00;102790.53;5277935;28;20100;-82
2022/10/19 00:56:11;;;;;;;36.55;16.58;;;;;;;7.06;100.00;102788.66;5268237;28;20033;-81
2022/10/19 00:58:44;;;;;;;38.45;17.30;;;;;;;7.02;100.00;102791.56;5273134;28;20037;-82
2022/10/19 01:01:19;;;;;;;34.58;16.83;;;;;;;7.02;100.00;102795.06;5277542;28;20120;-82
2022/10/19 01:03:51;;;;;;;35.35;17.00;;;;;;;6.98;100.00;102794.34;5278173;28;20063;-82
2022/10/19 01:06:23;;;;;;;34.40;17.13;;;;;;;7.01;100.00;102780.06;5279361;28;20378;-82
2022/10/19 01:08:55;;;;;;;31.55;15.98;;;;;;;6.98;100.00;102785.53;5267616;28;20560;-82
2022/10/19 01:11:46;;;;;;;32.47;16.63;;;;;;;6.98;100.00;102785.53;5280004;28;20060;-82
2022/10/19 01:14:36;;;;;;;35.35;15.55;;;;;;;7.03;100.00;102787.94;5275603;28;20021;-82
2022/10/19 01:17:13;;;;;;;38.20;17.40;;;;;;;6.81;100.00;102781.84;5277806;28;20049;-83
2022/10/19 01:20:25;;;;;;;30.02;14.85;;;;;;;6.85;100.00;102785.22;5272973;28;20033;-82
2022/10/19 01:22:59;;;;;;;31.92;15.77;;;;;;;6.85;100.00;102784.38;5273200;28;20025;-82
2022/10/19 01:25:36;;;;;;;26.90;14.85;;;;;;;6.82;100.00;102786.22;5272279;28;20079;-82
2022/10/19 01:28:17;;;;;;;29.30;15.32;;;;;;;6.77;100.00;102780.28;5270180;28;20485;-82
2022/10/19 01:30:51;;;;;;;35.08;16.10;;;;;;;6.85;100.00;102792.31;5276722;28;32268;-82
2022/10/19 01:33:55;;;;;;;30.27;16.73;;;;;;;6.84;100.00;102782.63;5279455;28;20072;-82
2022/10/19 01:36:53;;;;;;;28.92;16.60;;;;;;;6.84;100.00;102779.97;5256031;28;20037;-82
2022/10/19 01:39:36;;;;;;;32.42;17.23;;;;;;;6.85;100.00;102771.94;5280885;28;20123;-82
2022/10/19 01:42:15;;;;;;;27.13;16.55;;;;;;;6.79;100.00;102773.09;5283466;28;25859;-82
2022/10/19 01:45:08;;;;;;;33.83;17.10;;;;;;;6.79;100.00;102777.56;5280584;28;20410;-82
2022/10/19 01:48:11;;;;;;;34.75;18.13;;;;;;;6.66;100.00;102774.59;5275586;28;20025;-82
2022/10/19 01:50:51;;;;;;;27.60;15.75;;;;;;;6.63;100.00;102782.69;5278349;28;20456;-82
2022/10/19 01:53:25;;;;;;;46.00;17.10;;;;;;;6.51;100.00;102767.34;5287235;28;20095;-82
2022/10/19 01:56:01;;;;;;;32.97;17.23;;;;;;;6.54;100.00;102769.84;5276526;28;20098;-83
2022/10/19 01:58:36;;;;;;;35.58;16.98;;;;;;;6.59;100.00;102767.84;5316409;28;20026;-82
2022/10/19 02:01:09;;;;;;;37.70;18.55;;;;;;;6.75;100.00;102770.66;5283611;28;20395;-82
2022/10/19 02:03:41;;;;;;;30.27;19.50;;;;;;;6.67;100.00;102772.81;5279655;28;20525;-82
2022/10/19 02:06:13;;;;;;;37.90;19.33;;;;;;;6.66;100.00;102758.66;5273893;28;20037;-82
2022/10/19 02:08:50;;;;;;;39.75;19.88;;;;;;;6.86;100.00;102754.25;5274554;28;20034;-82
2022/10/19 02:11:23;;;;;;;45.85;19.15;;;;;;;6.39;100.00;102747.53;5275171;28;20025;-82
2022/10/19 02:14:08;;;;;;;38.63;20.25;;;;;;;6.65;100.00;102738.41;5277182;28;20029;-82
2022/10/19 02:16:47;;;;;;;31.25;18.38;;;;;;;6.61;100.00;102743.00;5274843;28;20028;-83
2022/10/19 02:19:19;;;;;;;35.97;18.35;;;;;;;6.63;100.00;102742.94;5275534;28;20029;-82
2022/10/19 02:21:51;;;;;;;31.80;18.58;;;;;;;6.59;100.00;102730.72;5279001;28;20489;-82
2022/10/19 02:24:22;;;;;;;34.92;17.70;;;;;;;6.56;100.00;102730.88;5274221;28;20052;-82
2022/10/19 02:26:55;;;;;;;39.35;18.98;;;;;;;6.58;100.00;102732.50;5306043;28;20473;-83
2022/10/19 02:29:27;;;;;;;38.67;18.25;;;;;;;6.51;100.00;102724.94;5303162;28;20109;-82
2022/10/19 02:31:59;;;;;;;38.42;18.00;;;;;;;6.68;100.00;102732.09;5263210;28;20048;-82
2022/10/19 02:34:31;;;;;;;31.17;16.30;;;;;;;6.71;100.00;102724.00;5279619;28;20104;-83
2022/10/19 02:37:04;;;;;;;27.05;16.92;;;;;;;6.79;100.00;102727.16;5273106;28;20037;-82
2022/10/19 02:39:37;;;;;;;33.22;19.75;;;;;;;6.45;100.00;102720.75;5272498;28;20029;-83
2022/10/19 02:42:14;;;;;;;33.20;18.90;;;;;;;6.44;100.00;102717.25;5266506;28;20037;-82
2022/10/19 02:44:52;;;;;;;34.05;17.65;;;;;;;6.44;100.00;102716.38;5275698;28;20040;-82
2022/10/19 02:47:29;;;;;;;30.70;18.55;;;;;;;6.36;100.00;102716.72;5272200;28;20461;-83
2022/10/19 02:50:05;;;;;;;33.65;17.77;;;;;;;6.29;100.00;102706.47;5265481;28;20123;-82
2022/10/19 02:52:38;;;;;;;36.53;17.02;;;;;;;6.27;100.00;102703.03;5275386;28;20037;-83
2022/10/19 02:55:09;;;;;;;30.55;17.75;;;;;;;6.22;100.00;102708.53;5304417;28;20108;-83
2022/10/19 02:57:40;;;;;;;31.63;18.13;;;;;;;6.17;100.00;102716.69;5271695;28;20179;-82
2022/10/19 03:00:12;;;;;;;34.05;16.30;;;;;;;6.14;100.00;102714.19;5266087;28;26776;-82
2022/10/19 03:02:43;;;;;;;31.92;16.85;;;;;;;6.15;100.00;102715.03;5274736;28;20045;-82
2022/10/19 03:05:14;;;;;;;33.22;17.25;;;;;;;6.07;100.00;102699.50;5313666;28;20040;-82
2022/10/19 03:07:46;;;;;;;38.75;16.52;;;;;;;6.09;100.00;102712.66;5279024;28;20461;-82
2022/10/19 03:10:17;;;;;;;29.83;17.23;;;;;;;6.05;100.00;102714.59;5275044;28;20021;-82
2022/10/19 03:12:48;;;;;;;29.83;17.60;;;;;;;6.01;100.00;102711.22;5273667;28;20029;-82
2022/10/19 03:15:22;;;;;;;29.60;16.08;;;;;;;6.01;100.00;102716.53;5277762;28;20029;-82
2022/10/19 03:17:54;;;;;;;34.95;15.75;;;;;;;5.95;100.00;102722.03;5280154;28;20025;-82
2022/10/19 03:20:25;;;;;;;36.92;15.52;;;;;;;5.94;100.00;102722.94;5276392;28;20017;-82
2022/10/19 03:22:57;;;;;;;28.52;15.27;;;;;;;5.81;100.00;102729.72;5279155;28;20089;-83
2022/10/19 03:25:28;;;;;;;31.15;16.40;;;;;;;5.76;100.00;102723.75;5281058;28;20035;-82
2022/10/19 03:27:59;;;;;;;26.73;15.93;;;;;;;5.71;100.00;102715.13;5280604;28;20451;-82
2022/10/19 03:30:30;;;;;;;35.70;17.50;;;;;;;5.76;100.00;102713.16;5269824;28;20028;-83
2022/10/19 03:33:02;;;;;;;28.38;15.30;;;;;;;5.82;100.00;102715.53;5279272;28;20043;-82
2022/10/19 03:35:33;;;;;;;28.10;16.42;;;;;;;5.92;100.00;102708.91;5279997;28;20024;-82
2022/10/19 03:38:04;;;;;;;34.35;17.17;;;;;;;5.85;100.00;102716.25;5277125;28;20017;-82
2022/10/19 03:40:36;;;;;;;34.33;17.73;;;;;;;5.85;100.00;102707.47;5276688;28;20075;-82
2022/10/19 03:43:07;;;;;;;30.20;16.63;;;;;;;5.94;100.00;102716.78;5273661;28;20044;-82
2022/10/19 03:45:38;;;;;;;35.65;17.08;;;;;;;5.75;100.00;102711.44;5263428;28;20444;-82
2022/10/19 03:48:10;;;;;;;33.35;17.40;;;;;;;5.72;100.00;102714.22;5307873;28;20052;-82
2022/10/19 03:50:41;;;;;;;37.78;17.92;;;;;;;5.72;100.00;102714.22;5264893;28;20031;-82
2022/10/19 03:53:13;;;;;;;32.40;17.98;;;;;;;5.71;100.00;102723.94;5277773;28;20122;-83
2022/10/19 03:55:45;;;;;;;30.45;17.45;;;;;;;5.71;100.00;102720.44;5282919;28;20028;-83
2022/10/19 03:58:16;;;;;;;32.35;17.95;;;;;;;5.69;100.00;102724.00;5273982;28;20371;-83
2022/10/19 04:00:47;;;;;;;40.08;18.25;;;;;;;5.64;100.00;102733.91;5270909;28;20461;-83
2022/10/19 04:03:18;;;;;;;212.38;27.42;;;;;;;5.47;100.00;102725.84;5303196;28;20050;-82
2022/10/19 04:05:50;;;;;;;28.30;16.02;;;;;;;5.50;100.00;102731.00;5272766;28;20049;-83
2022/10/19 04:08:21;;;;;;;30.85;16.08;;;;;;;5.47;100.00;102733.78;5278133;28;20025;-82
2022/10/19 04:10:58;;;;;;;30.17;16.48;;;;;;;5.45;100.00;102728.56;5271862;28;20390;-82
2022/10/19 04:13:30;;;;;;;28.52;14.25;;;;;;;5.41;100.00;102731.38;5280169;28;20362;-82
2022/10/19 04:16:02;;;;;;;31.65;16.42;;;;;;;5.36;100.00;102725.41;5275679;28;20037;-82
2022/10/19 04:18:33;;;;;;;31.08;16.23;;;;;;;5.37;100.00;102714.75;5309673;28;20060;-82
2022/10/19 04:21:05;;;;;;;32.05;16.92;;;;;;;5.44;100.00;102713.59;5283181;28;20525;-82
2022/10/19 04:23:37;;;;;;;29.65;16.60;;;;;;;5.47;100.00;102712.63;5272095;28;20017;-82
2022/10/19 04:26:09;;;;;;;30.70;17.48;;;;;;;5.60;100.00;102719.09;5272453;28;20033;-82
2022/10/19 04:28:40;;;;;;;29.88;18.05;;;;;;;5.65;100.00;102718.91;5270245;28;20029;-83
2022/10/19 04:31:12;;;;;;;37.72;19.90;;;;;;;5.59;100.00;102712.09;5278747;28;20116;-82
2022/10/19 04:33:43;;;;;;;37.70;18.42;;;;;;;5.49;100.00;102700.16;5275862;28;20040;-83
2022/10/19 04:36:15;;;;;;;33.75;18.40;;;;;;;5.49;100.00;102702.81;5261165;28;20021;-82
2022/10/19 04:38:46;;;;;;;31.02;17.73;;;;;;;5.51;100.00;102700.97;5267859;28;20030;-82
2022/10/19 04:41:20;;;;;;;31.52;18.48;;;;;;;5.56;100.00;102706.94;5275711;28;20025;-82
2022/10/19 04:43:59;;;;;;;30.90;18.75;;;;;;;5.57;100.00;102698.03;5269808;28;20070;-83
2022/10/19 04:46:31;;;;;;;29.48;18.20;;;;;;;5.62;100.00;102708.44;5271844;28;20478;-83
2022/10/19 04:49:05;;;;;;;33.33;18.80;;;;;;;5.62;100.00;102703.16;5269860;28;20551;-82
2022/10/19 04:51:36;;;;;;;43.13;20.17;;;;;;;5.58;100.00;102702.41;5274602;28;20051;-82
2022/10/19 04:54:07;;;;;;;35.05;18.27;;;;;;;5.57;100.00;102710.44;5265472;28;20056;-82
2022/10/19 04:56:39;;;;;;;34.05;18.17;;;;;;;5.57;100.00;102715.72;5269686;28;20033;-82
2022/10/19 04:59:10;;;;;;;30.17;15.10;;;;;;;5.57;100.00;102718.38;5269691;28;20102;-82
2022/10/19 05:01:42;;;;;;;34.72;17.27;;;;;;;5.44;100.00;102715.38;5265897;28;20025;-82
2022/10/19 05:04:13;;;;;;;35.05;17.77;;;;;;;5.41;100.00;102715.50;5274599;28;20041;-82
2022/10/19 05:06:44;;;;;;;32.47;17.73;;;;;;;5.38;100.00;102712.97;5269455;28;20056;-83
2022/10/19 05:09:15;;;;;;;28.13;16.85;;;;;;;5.34;100.00;102712.22;5263593;28;20071;-82
2022/10/19 05:11:50;;;;;;;31.98;16.67;;;;;;;5.36;100.00;102706.88;5264898;28;20454;-82
2022/10/19 05:14:21;;;;;;;27.73;16.30;;;;;;;5.46;100.00;102713.53;5267054;28;20033;-82
2022/10/19 05:16:52;;;;;;;33.53;18.08;;;;;;;5.41;100.00;102710.19;5275165;28;20385;-83
2022/10/19 05:19:24;;;;;;;29.65;15.20;;;;;;;5.68;100.00;102716.16;5274165;28;20369;-83
2022/10/19 05:21:55;;;;;;;37.17;19.05;;;;;;;5.43;100.00;102708.34;5262174;28;20029;-82
2022/10/19 05:24:26;;;;;;;40.40;20.05;;;;;;;5.35;100.00;102710.44;5255524;28;23433;-83
2022/10/19 05:26:58;;;;;;;37.00;19.35;;;;;;;5.34;100.00;102704.28;5263177;28;20115;-82
2022/10/19 05:29:29;;;;;;;35.35;19.35;;;;;;;5.29;100.00;102693.91;5263392;28;20104;-82
2022/10/19 05:32:00;;;;;;;36.70;19.65;;;;;;;5.34;100.00;102693.72;5297997;28;20029;-82
2022/10/19 05:34:32;;;;;;;37.83;19.27;;;;;;;5.32;100.00;102684.13;5260610;28;20102;-82
2022/10/19 05:37:03;;;;;;;39.67;19.67;;;;;;;5.24;100.00;102690.59;5262247;28;20490;-82
2022/10/19 05:39:34;;;;;;;37.92;19.90;;;;;;;5.21;100.00;102687.22;5266239;28;20030;-82
2022/10/19 05:42:06;;;;;;;39.83;19.70;;;;;;;5.22;100.00;102684.47;5260767;28;20386;-82
2022/10/19 05:44:37;;;;;;;39.35;20.55;;;;;;;5.20;100.00;102686.34;5263088;28;21320;-82
2022/10/19 05:47:08;;;;;;;47.00;21.00;;;;;;;5.20;100.00;102681.03;5271685;28;20068;-82
2022/10/19 05:49:40;;;;;;;40.53;20.50;;;;;;;5.25;100.00;102683.50;5272479;28;20065;-82
2022/10/19 05:52:11;;;;;;;42.78;21.30;;;;;;;5.18;100.00;102680.25;5279017;28;20033;-82
2022/10/19 05:54:43;;;;;;;43.72;21.55;;;;;;;5.18;100.00;102690.84;5278618;28;20113;-83
2022/10/19 05:57:14;;;;;;;38.17;20.70;;;;;;;5.16;100.00;102690.03;5268057;28;20048;-82
2022/10/19 05:59:45;;;;;;;42.08;21.92;;;;;;;5.24;100.00;102679.13;5267443;28;20045;-82
2022/10/19 06:02:17;;;;;;;42.28;20.55;;;;;;;5.24;100.00;102681.78;5270940;28;20045;-83
2022/10/19 06:04:48;;;;;;;40.08;20.95;;;;;;;5.25;100.00;102679.06;5268619;28;20045;-83
2022/10/19 06:07:19;;;;;;;45.28;21.95;;;;;;;5.24;100.00;102672.06;5265920;28;20025;-82
2022/10/19 06:09:51;;;;;;;44.42;21.83;;;;;;;5.30;100.00;102671.81;5269932;28;20018;-83
2022/10/19 06:12:22;;;;;;;47.17;22.13;;;;;;;5.31;100.00;102667.38;5268020;28;20031;-83
2022/10/19 06:14:53;;;;;;;52.72;21.75;;;;;;;5.23;100.00;102672.13;5269255;28;20092;-83
2022/10/19 06:17:27;;;;;;;53.75;23.15;;;;;;;5.20;100.00;102662.53;5270375;28;20073;-83
2022/10/19 06:19:59;;;;;;;41.92;23.48;;;;;;;5.26;100.00;102664.94;5270662;28;20032;-83
2022/10/19 06:22:30;;;;;;;54.63;24.45;;;;;;;5.29;100.00;102670.09;5268906;28;20025;-84
2022/10/19 06:25:01;;;;;;;52.15;24.40;;;;;;;5.36;100.00;102669.84;5267986;28;20030;-83
2022/10/19 06:27:33;;;;;;;52.88;23.10;;;;;;;5.47;100.00;102668.47;5271430;28;20437;-83
2022/10/19 06:30:05;;;;;;;52.25;25.98;;;;;;;5.74;100.00;102675.31;5267462;28;20109;-83
2022/10/19 06:32:36;;;;;;;58.10;29.73;;;;;;;5.83;100.00;102680.19;5267754;28;20037;-83
2022/10/19 06:35:07;;;;;;;58.92;28.02;;;;;;;5.86;100.00;102680.91;5259898;28;20480;-83
2022/10/19 06:37:39;;;;;;;55.33;30.33;;;;;;;5.91;100.00;102669.25;5263001;28;20441;-83
2022/10/19 06:40:11;;;;;;;54.20;27.40;;;;;;;6.01;100.00;102675.91;5265874;28;20103;-83
2022/10/19 06:42:42;;;;;;;59.58;28.33;;;;;;;6.09;100.00;102681.72;5264969;28;20115;-83
2022/10/19 06:45:13;;;;;;;60.38;30.02;;;;;;;6.08;100.00;102687.94;5262624;28;20045;-84
2022/10/19 06:47:45;;;;;;;63.17;29.77;;;;;;;5.99;100.00;102670.66;5264544;28;20061;-83
2022/10/19 06:50:17;;;;;;;58.78;28.85;;;;;;;6.03;100.00;102680.22;5264309;28;20399;-84
2022/10/19 06:52:48;;;;;;;54.70;28.15;;;;;;;6.09;100.00;102680.88;5273390;28;20030;-84
2022/10/19 06:55:19;;;;;;;56.03;29.30;;;;;;;6.13;100.00;102687.75;5243089;28;20018;-84
2022/10/19 06:57:51;;;;;;;54.08;28.33;;;;;;;6.15;100.00;102672.63;5253462;28;20490;-84
2022/10/19 07:00:22;;;;;;;63.20;29.17;;;;;;;6.21;100.00;102683.81;5261245;28;20026;-81
2022/10/19 07:02:54;;;;;;;52.17;28.88;;;;;;;6.28;100.00;102680.91;5263137;28;20053;-84
2022/10/19 07:05:25;;;;;;;49.05;28.63;;;;;;;6.38;100.00;102682.19;5262949;28;20536;-84
2022/10/19 07:07:57;;;;;;;56.40;30.92;;;;;;;6.47;100.00;102667.66;5263433;28;20022;-84
2022/10/19 07:10:28;;;;;;;64.97;33.65;;;;;;;7.01;100.00;102676.56;5262017;28;20493;-84
2022/10/19 07:12:59;;;;;;;75.25;39.47;;;;;;;7.76;100.00;102683.44;5260059;28;20018;-83
2022/10/19 07:15:31;;;;;;;83.80;43.60;;;;;;;8.27;100.00;102683.44;5262286;28;20033;-82
2022/10/19 07:18:02;;;;;;;303.40;67.95;;;;;;;9.31;100.00;102691.03;5262954;28;20105;-83
2022/10/19 07:20:33;;;;;;;650.38;109.53;;;;;;;10.24;100.00;102695.25;5266132;28;20039;-83
2022/10/19 07:23:05;;;;;;;114.53;53.25;;;;;;;10.77;100.00;102695.50;5262238;28;20104;-83
2022/10/19 07:25:36;;;;;;;79.55;46.30;;;;;;;11.06;100.00;102698.97;5295128;28;20033;-84
2022/10/19 07:28:07;;;;;;;942.25;130.93;;;;;;;11.35;100.00;102701.53;5263815;28;20120;-84
2022/10/19 07:30:39;;;;;;;76.13;41.70;;;;;;;11.02;100.00;102700.09;5262396;28;20057;-83
2022/10/19 07:33:10;;;;;;;49.33;31.38;;;;;;;12.15;100.00;102696.13;5270376;28;20400;-84
2022/10/19 07:35:44;;;;;;;35.25;23.13;;;;;;;12.39;100.00;102688.16;5269750;28;20076;-83
2022/10/19 07:38:15;;;;;;;25.50;18.60;;;;;;;12.67;100.00;102692.41;5272645;28;20048;-84
2022/10/19 07:40:46;;;;;;;20.10;13.50;;;;;;;13.11;100.00;102686.56;5268968;28;20112;-84
2022/10/19 07:43:18;;;;;;;18.90;11.25;;;;;;;13.53;100.00;102690.53;5266599;28;20057;-84
2022/10/19 07:45:49;;;;;;;19.42;9.00;;;;;;;14.27;100.00;102690.19;5266295;28;20063;-84
2022/10/19 07:48:20;;;;;;;14.23;6.72;;;;;;;14.84;100.00;102684.78;5261582;28;33493;-84
2022/10/19 07:50:52;;;;;;;10.93;6.05;;;;;;;15.31;100.00;102670.09;5263964;28;20033;-83
2022/10/19 07:53:23;;;;;;;8.27;5.13;;;;;;;15.66;100.00;102654.63;5260299;28;20034;-82
2022/10/19 07:55:55;;;;;;;7.93;4.78;;;;;;;16.19;100.00;102650.97;5264917;28;20040;-82
2022/10/19 07:58:26;;;;;;;10.32;4.90;;;;;;;17.06;100.00;102652.19;5263730;28;20440;-83
2022/10/19 08:01:05;;;;;;;7.53;3.92;;;;;;;17.86;100.00;102648.28;5260852;28;20172;-83
2022/10/19 08:03:37;;;;;;;8.70;4.15;;;;;;;17.81;100.00;102646.97;5258836;28;20049;-83
2022/10/19 08:06:13;;;;;;;6.60;4.13;;;;;;;17.76;100.00;102636.66;5258714;28;20046;-83
2022/10/19 08:08:46;;;;;;;7.70;4.47;;;;;;;18.14;100.00;102634.81;5265307;28;20037;-83
2022/10/19 08:11:20;;;;;;;8.90;5.45;;;;;;;19.15;100.00;102642.88;5261118;28;20087;-83
2022/10/19 08:13:52;;;;;;;11.20;6.25;;;;;;;20.01;100.00;102646.72;5264547;28;20120;-84
2022/10/19 08:16:26;;;;;;;12.43;7.47;;;;;;;19.96;100.00;102641.78;5266274;28;20318;-84
2022/10/19 08:19:00;;;;;;;11.60;7.57;;;;;;;20.14;100.00;102644.44;5265806;28;20037;-84
2022/10/19 08:21:31;;;;;;;14.02;7.13;;;;;;;20.65;100.00;102635.47;5265247;28;20131;-84
2022/10/19 08:24:04;;;;;;;10.48;5.65;;;;;;;20.54;100.00;102618.47;5264697;28;20033;-83
2022/10/19 08:26:37;;;;;;;9.70;6.10;;;;;;;20.86;100.00;102621.44;5271880;28;20033;-84
2022/10/19 08:29:11;;;;;;;13.75;5.97;;;;;;;20.67;100.00;102609.03;5268448;28;20033;-84
2022/10/19 08:31:44;;;;;;;9.80;5.03;;;;;;;21.10;100.00;102621.47;5267319;28;20120;-83
2022/10/19 08:34:16;;;;;;;9.02;4.68;;;;;;;21.24;100.00;102609.09;5268482;28;20033;-83
2022/10/19 08:36:47;;;;;;;6.68;4.15;;;;;;;21.18;100.00;102608.91;5274182;28;20501;-83
2022/10/19 08:39:19;;;;;;;9.80;4.15;;;;;;;21.28;100.00;102599.63;5260713;28;20021;-83
2022/10/19 08:42:09;;;;;;;14.90;4.60;;;;;;;22.17;100.00;102596.00;5266569;28;20022;-83
2022/10/19 08:45:02;;;;;;;10.02;4.00;;;;;;;22.45;100.00;102597.22;5255665;28;20040;-83
2022/10/19 08:48:15;;;;;;;10.98;3.97;;;;;;;22.95;100.00;102591.44;5259690;28;20471;-83
2022/10/19 08:50:47;;;;;;;11.85;3.70;;;;;;;22.65;100.00;102591.31;5250372;28;21135;-84
2022/10/19 08:53:31;;;;;;;9.15;3.40;;;;;;;23.95;100.00;102596.63;5261690;28;20064;-84
2022/10/19 08:56:39;;;;;;;8.27;3.40;;;;;;;24.37;100.00;102596.94;5257622;28;20017;-84
2022/10/19 08:59:38;;;;;;;9.82;3.08;;;;;;;25.10;100.00;102599.56;5261336;28;20029;-84
2022/10/19 09:02:19;;;;;;;6.13;2.92;;;;;;;25.69;100.00;102586.59;5248327;28;20078;-84
2022/10/19 09:04:59;;;;;;;6.95;2.83;;;;;;;25.78;100.00;102588.09;5260083;28;20391;-84
2022/10/19 09:07:43;;;;;;;6.60;2.50;;;;;;;26.35;93.77;102586.03;5263735;28;20075;-84
2022/10/19 09:10:15;;;;;;;10.15;2.60;;;;;;;26.65;85.78;102583.84;5259676;28;20084;-84
2022/10/19 09:12:55;;;;;;;9.23;3.40;;;;;;;27.12;85.77;102581.09;5263875;28;20033;-84
2022/10/19 09:15:37;;;;;;;8.50;3.20;;;;;;;27.13;81.49;102575.44;5266456;28;20478;-84
2022/10/19 09:18:30;;;;;;;7.50;3.10;;;;;;;27.73;84.11;102594.56;5266434;28;20382;-84
2022/10/19 09:21:19;;;;;;;10.65;3.40;;;;;;;27.32;82.15;102592.94;5296917;28;20022;-84
2022/10/19 09:24:20;;;;;;;11.15;3.15;;;;;;;27.32;82.27;102597.56;5264058;28;20026;-84
2022/10/19 09:26:55;;;;;;;9.25;2.92;;;;;;;26.96;81.56;102605.16;5264337;28;20565;-84
2022/10/19 09:29:48;;;;;;;9.73;2.50;;;;;;;27.37;75.81;102600.53;5264988;28;20518;-84
2022/10/19 09:32:29;;;;;;;8.40;2.67;;;;;;;27.12;79.57;102592.94;5264765;28;20080;-84
2022/10/19 09:35:16;;;;;;;7.05;2.40;;;;;;;27.77;67.93;102599.59;5262549;28;20029;-84
2022/10/19 09:37:49;;;;;;;7.00;2.13;;;;;;;27.56;66.51;102587.84;5264895;28;20027;-84
2022/10/19 09:40:27;;;;;;;7.35;2.30;;;;;;;26.77;69.20;102581.31;5265698;28;20021;-83
2022/10/19 09:43:02;;;;;;;8.23;2.25;;;;;;;25.97;67.99;102579.19;5262439;28;20112;-83
2022/10/19 09:45:52;;;;;;;8.13;2.00;;;;;;;26.60;77.71;102583.59;5264615;28;20486;-83
2022/10/19 09:48:30;;;;;;;7.80;2.08;;;;;;;25.13;74.85;102577.34;5264668;28;20032;-83
2022/10/19 09:51:09;;;;;;;8.95;2.30;;;;;;;26.50;72.75;102556.63;5264499;28;20087;-83
2022/10/19 09:53:50;;;;;;;11.70;2.28;;;;;;;27.07;68.89;102557.13;5263979;28;20061;-83
2022/10/19 09:56:26;;;;;;;5.72;2.33;;;;;;;27.11;67.26;102554.78;5264269;28;20034;-83
2022/10/19 09:58:58;;;;;;;7.65;2.15;;;;;;;26.74;64.87;102549.75;5264296;28;20017;-83
2022/10/19 10:01:38;;;;;;;5.70;1.90;;;;;;;26.80;68.53;102545.31;5264268;28;20530;-83
2022/10/19 10:04:13;;;;;;;11.20;2.83;;;;;;;26.46;67.66;102547.16;5262552;28;20069;-83
2022/10/19 10:06:47;;;;;;;9.63;2.72;;;;;;;25.91;71.11;102533.50;5263763;28;20025;-83
2022/10/19 10:09:26;;;;;;;8.00;1.83;;;;;;;25.98;70.48;102536.28;5263942;28;20108;-83
2022/10/19 10:11:58;;;;;;;8.25;2.42;;;;;;;25.64;73.33;102548.91;5263682;28;20052;-83
2022/10/19 10:14:35;;;;;;;5.75;2.03;;;;;;;24.59;77.90;102542.44;5264133;28;20382;-83
2022/10/19 10:17:15;;;;;;;6.88;2.17;;;;;;;24.10;84.19;102544.81;5262248;28;20059;-83
2022/10/19 10:19:58;;;;;;;8.07;2.28;;;;;;;24.01;93.73;102543.22;5263678;28;20946;-83
2022/10/19 10:22:32;;;;;;;7.95;2.08;;;;;;;24.11;87.47;102554.69;5263611;28;20025;-83
2022/10/19 10:25:17;;;;;;;6.57;1.85;;;;;;;25.48;79.13;102548.19;5263535;28;20033;-83
2022/10/19 10:28:03;;;;;;;10.55;2.25;;;;;;;26.82;71.85;102554.16;5247800;28;20030;-83
2022/10/19 10:30:36;;;;;;;6.20;2.05;;;;;;;26.69;68.40;102538.56;5252608;28;20034;-83
2022/10/19 10:33:15;;;;;;;5.72;1.55;;;;;;;27.99;66.91;102540.69;5264467;28;20048;-83
2022/10/19 10:35:52;;;;;;;10.07;2.22;;;;;;;28.29;60.67;102526.38;5263333;28;20048;-84
2022/10/19 10:38:32;;;;;;;7.72;2.10;;;;;;;28.85;55.88;102524.75;5278803;28;20021;-83
2022/10/19 10:41:10;;;;;;;7.18;2.13;;;;;;;28.62;56.34;102525.34;5274860;28;20120;-83
2022/10/19 10:43:53;;;;;;;8.05;2.35;;;;;;;29.90;50.89;102525.78;5284013;28;20021;-83
2022/10/19 10:46:32;;;;;;;8.80;2.50;;;;;;;30.01;47.73;102515.88;5284405;28;20122;-83
2022/10/19 10:49:06;;;;;;;10.07;2.13;;;;;;;30.39;46.83;102520.25;5284767;28;20063;-83
2022/10/19 10:51:42;;;;;;;4.43;1.98;;;;;;;29.82;46.89;102517.84;5266211;28;20045;-83
2022/10/19 10:54:13;;;;;;;5.80;1.95;;;;;;;30.45;45.97;102522.03;5263144;28;20063;-83
2022/10/19 10:56:56;;;;;;;6.73;2.20;;;;;;;30.47;46.93;102506.97;5263569;28;20116;-83
2022/10/19 10:59:32;;;;;;;5.50;2.20;;;;;;;30.20;44.10;102511.19;5263216;28;20382;-83
2022/10/19 11:02:28;;;;;;;8.20;2.42;;;;;;;30.40;43.97;102502.63;5252708;28;20550;-83
2022/10/19 11:05:16;;;;;;;8.02;2.40;;;;;;;30.26;43.82;102499.22;5242298;28;20377;-83
2022/10/19 11:07:53;;;;;;;12.40;2.95;;;;;;;29.56;43.77;102490.44;5257295;28;20036;-83
2022/10/19 11:10:29;;;;;;;8.18;2.75;;;;;;;30.47;42.96;102489.59;5253168;28;20029;-84
2022/10/19 11:13:18;;;;;;;7.80;3.17;;;;;;;31.22;41.75;102479.81;5262213;28;20777;-83
2022/10/19 11:16:11;;;;;;;7.38;2.53;;;;;;;31.83;39.76;102485.78;5278172;28;20471;-83
2022/10/19 11:18:46;;;;;;;7.13;2.67;;;;;;;31.75;40.41;102481.53;5263220;28;20067;-83
2022/10/19 11:21:56;;;;;;;8.60;2.60;;;;;;;33.66;36.52;102472.41;5260962;28;20133;-83
2022/10/19 11:25:00;;;;;;;7.63;2.78;;;;;;;32.86;36.07;102469.09;5260630;28;20084;-83
2022/10/19 11:27:43;;;;;;;6.60;3.10;;;;;;;32.36;34.73;102458.88;5262242;28;20022;-83
2022/10/19 11:30:25;;;;;;;8.43;3.00;;;;;;;32.13;34.23;102454.38;5262410;28;20433;-83
2022/10/19 11:33:24;;;;;;;5.68;2.35;;;;;;;31.75;36.34;102445.66;5262892;28;20021;-83
2022/10/19 11:35:58;;;;;;;10.27;3.67;;;;;;;30.82;37.70;102444.72;5295048;28;20017;-83
2022/10/19 11:38:48;;;;;;;9.20;3.10;;;;;;;30.88;38.56;102441.88;5261940;28;20045;-83
2022/10/19 11:41:19;;;;;;;7.15;3.00;;;;;;;29.54;37.46;102426.59;5262455;28;20068;-83
2022/10/19 11:44:08;;;;;;;8.27;3.00;;;;;;;29.62;39.07;102414.44;5262744;28;20026;-83
2022/10/19 11:47:14;;;;;;;7.65;3.08;;;;;;;30.33;37.99;102412.75;5260029;28;20045;-83
2022/10/19 11:50:33;;;;;;;7.75;2.67;;;;;;;31.17;37.68;102386.03;5262030;28;20108;-84